createdAt,value
2023-02-13T00:03:21.455Z,7.50
2023-02-13T00:08:23.145Z,7.52
2023-02-13T00:13:24.758Z,7.52
2023-02-13T00:18:27.777Z,7.65
2023-02-13T00:23:31.620Z,7.63
2023-02-13T00:28:33.528Z,7.59
2023-02-13T00:33:35.698Z,7.78
2023-02-13T00:38:38.813Z,7.83
2023-02-13T00:43:40.695Z,7.86
2023-02-13T00:48:42.380Z,7.88
2023-02-13T00:53:43.986Z,7.91
2023-02-13T00:58:46.055Z,7.94
2023-02-13T01:03:47.740Z,7.89
2023-02-13T01:08:49.427Z,7.89
2023-02-13T01:13:51.026Z,7.82
2023-02-13T01:18:52.619Z,7.83
2023-02-13T01:23:54.223Z,7.84
2023-02-13T01:28:57.788Z,7.86
2023-02-13T01:33:59.923Z,7.85
2023-02-13T01:39:01.651Z,7.84
2023-02-13T01:44:03.814Z,7.82
2023-02-13T01:49:23.674Z,7.67
2023-02-13T01:54:31.422Z,7.60
2023-02-13T01:59:55.192Z,7.44
2023-02-13T02:04:56.800Z,7.24
2023-02-13T02:10:07.637Z,6.98
2023-02-13T02:15:09.971Z,6.71
2023-02-13T02:20:20.463Z,6.40
2023-02-13T02:25:53.036Z,6.09
2023-02-13T02:31:06.593Z,5.98
2023-02-13T02:36:57.079Z,5.78
2023-02-13T02:42:11.776Z,5.75
2023-02-13T02:47:42.803Z,5.68
2023-02-13T02:53:02.438Z,5.37
2023-02-13T02:58:38.800Z,5.22
2023-02-13T03:03:59.535Z,5.15
2023-02-13T03:09:22.754Z,5.04
2023-02-13T03:14:27.394Z,4.98
2023-02-13T03:20:16.555Z,4.92
2023-02-13T03:25:30.375Z,4.83
2023-02-13T03:30:49.762Z,4.72
2023-02-13T03:36:28.828Z,4.67
2023-02-13T03:41:52.777Z,4.51
2023-02-13T03:46:58.486Z,4.44
2023-02-13T03:52:16.206Z,4.27
2023-02-13T03:57:40.274Z,4.23
2023-02-13T04:02:54.935Z,4.19
2023-02-13T04:07:56.873Z,4.17
2023-02-13T04:13:24.009Z,4.11
2023-02-13T04:18:30.783Z,3.97
2023-02-13T04:23:32.840Z,3.90
2023-02-13T04:28:34.506Z,3.86
2023-02-13T04:33:36.112Z,3.82
2023-02-13T04:38:37.697Z,3.78
2023-02-13T04:43:39.366Z,3.74
2023-02-13T04:48:40.984Z,3.68
2023-02-13T04:53:42.588Z,3.58
2023-02-13T04:58:44.175Z,3.47
2023-02-13T05:03:46.002Z,3.33
2023-02-13T05:08:47.689Z,3.28
2023-02-13T05:13:49.281Z,3.26
2023-02-13T05:18:54.900Z,3.15
2023-02-13T05:23:56.562Z,3.07
2023-02-13T05:29:16.660Z,2.92
2023-02-13T05:34:18.754Z,2.88
2023-02-13T05:39:20.764Z,2.92
2023-02-13T05:44:22.419Z,3.02
2023-02-13T05:49:24.071Z,2.93
2023-02-13T05:54:25.753Z,2.72
2023-02-13T05:59:27.366Z,2.71
2023-02-13T06:04:28.980Z,2.80
2023-02-13T06:09:30.624Z,2.88
2023-02-13T06:14:32.277Z,2.98
2023-02-13T06:19:33.936Z,3.02
2023-02-13T06:24:35.558Z,3.01
2023-02-13T06:29:37.181Z,2.99
2023-02-13T06:34:38.764Z,3.10
2023-02-13T06:39:40.369Z,3.13
2023-02-13T06:44:41.987Z,3.22
2023-02-13T06:49:43.561Z,3.25
2023-02-13T06:54:47.943Z,3.16
2023-02-13T06:59:49.823Z,3.07
2023-02-13T07:04:51.470Z,3.16
2023-02-13T07:09:53.030Z,3.18
2023-02-13T07:14:54.686Z,3.25
2023-02-13T07:19:56.362Z,3.31
2023-02-13T07:24:59.088Z,3.30
2023-02-13T07:30:00.785Z,3.33
2023-02-13T07:35:02.834Z,3.26
2023-02-13T07:40:06.488Z,3.07
2023-02-13T07:45:08.904Z,3.17
2023-02-13T07:50:11.829Z,3.39
2023-02-13T07:55:13.458Z,3.54
2023-02-13T08:00:18.387Z,3.73
2023-02-13T08:05:24.738Z,3.81
2023-02-13T08:10:46.750Z,3.90
2023-02-13T08:15:48.678Z,3.94
2023-02-13T08:20:50.302Z,3.91
2023-02-13T08:25:52.449Z,4.07
2023-02-13T08:30:55.452Z,4.10
2023-02-13T08:35:57.372Z,4.19
2023-02-13T08:40:59.567Z,4.23
2023-02-13T08:46:01.668Z,4.18
2023-02-13T08:51:11.514Z,4.35
2023-02-13T08:56:13.235Z,4.39
2023-02-13T09:01:15.078Z,4.62
2023-02-13T09:06:16.920Z,4.75
2023-02-13T09:11:19.817Z,4.76
2023-02-13T09:16:22.518Z,5.01
2023-02-13T09:21:24.222Z,5.28
2023-02-13T09:26:25.872Z,5.39
2023-02-13T09:31:29.542Z,5.46
2023-02-13T09:36:31.485Z,5.53
2023-02-13T09:41:37.672Z,5.66
2023-02-13T09:46:41.053Z,5.63
2023-02-13T09:51:50.442Z,5.75
2023-02-13T09:57:02.020Z,5.84
2023-02-13T10:02:41.622Z,5.85
2023-02-13T10:07:51.261Z,6.00
2023-02-13T10:12:58.693Z,6.14
2023-02-13T10:18:05.403Z,6.19
2023-02-13T10:23:28.815Z,6.33
2023-02-13T10:28:33.608Z,6.68
2023-02-13T10:33:39.612Z,6.94
2023-02-13T10:39:03.112Z,7.27
2023-02-13T10:44:41.551Z,7.38
2023-02-13T10:49:52.806Z,7.40
2023-02-13T10:55:13.060Z,7.61
2023-02-13T11:00:38.941Z,7.75
2023-02-13T11:05:51.405Z,7.85
2023-02-13T11:10:53.614Z,7.94
2023-02-13T11:16:02.746Z,7.97
2023-02-13T11:21:17.875Z,8.06
2023-02-13T11:26:28.490Z,8.20
2023-02-13T11:31:32.657Z,8.40
2023-02-13T11:36:34.475Z,8.39
2023-02-13T11:41:42.306Z,8.54
2023-02-13T11:46:47.948Z,8.55
2023-02-13T11:51:54.544Z,8.68
2023-02-13T11:57:04.833Z,8.78
2023-02-13T12:02:21.276Z,8.93
2023-02-13T12:07:25.268Z,9.10
2023-02-13T12:12:36.746Z,9.23
2023-02-13T12:17:40.800Z,9.36
2023-02-13T12:23:09.770Z,9.53
2023-02-13T12:28:13.996Z,9.60
2023-02-13T12:33:21.763Z,9.91
2023-02-13T12:38:35.006Z,10.01
2023-02-13T12:44:20.629Z,10.13
2023-02-13T12:50:01.321Z,10.22
2023-02-13T12:55:21.456Z,10.36
2023-02-13T13:00:41.367Z,10.41
2023-02-13T13:06:14.475Z,10.58
2023-02-13T13:11:38.241Z,10.75
2023-02-13T13:16:57.447Z,10.80
2023-02-13T13:22:15.079Z,10.94
2023-02-13T13:27:26.272Z,11.07
2023-02-13T13:32:30.067Z,11.15
2023-02-13T13:37:42.829Z,11.21
2023-02-13T13:43:28.460Z,11.25
2023-02-13T13:48:51.931Z,11.30
2023-02-13T13:54:05.479Z,11.42
2023-02-13T13:59:17.285Z,11.50
2023-02-13T14:04:36.694Z,11.64
2023-02-13T14:09:43.233Z,11.73
2023-02-13T14:14:45.805Z,11.88
2023-02-13T14:19:52.891Z,11.96
2023-02-13T14:25:05.357Z,11.99
2023-02-13T14:30:27.479Z,11.95
2023-02-13T14:35:38.021Z,11.92
2023-02-13T14:40:49.904Z,12.01
2023-02-13T14:46:03.959Z,11.98
2023-02-13T14:51:06.401Z,12.02
2023-02-13T14:56:14.561Z,12.06
2023-02-13T15:01:32.425Z,12.11
2023-02-13T15:06:39.583Z,12.17
2023-02-13T15:11:43.454Z,12.18
2023-02-13T15:16:52.512Z,12.16
2023-02-13T15:21:57.362Z,12.02
2023-02-13T15:27:07.206Z,11.95
2023-02-13T15:32:19.827Z,11.96
2023-02-13T15:37:23.823Z,11.93
2023-02-13T15:42:25.442Z,11.82
2023-02-13T15:47:31.663Z,11.81
2023-02-13T15:52:36.878Z,11.70
2023-02-13T15:57:39.442Z,11.53
2023-02-13T16:02:46.226Z,11.40
2023-02-13T16:07:48.825Z,11.38
2023-02-13T16:12:50.475Z,11.35
2023-02-13T16:17:52.385Z,11.15
2023-02-13T16:23:03.262Z,10.81
2023-02-13T16:28:22.344Z,10.45
2023-02-13T16:33:44.606Z,10.02
2023-02-13T16:38:48.551Z,9.78
2023-02-13T16:43:53.854Z,9.49
2023-02-13T16:48:59.151Z,9.21
2023-02-13T16:54:03.893Z,8.95
2023-02-13T16:59:17.351Z,8.66
2023-02-13T17:04:24.119Z,8.47
2023-02-13T17:09:25.869Z,8.32
2023-02-13T17:14:27.531Z,8.20
2023-02-13T17:19:29.863Z,8.00
2023-02-13T17:24:31.728Z,7.74
2023-02-13T17:29:33.325Z,7.56
2023-02-13T17:34:34.895Z,7.38
2023-02-13T17:39:36.520Z,7.13
2023-02-13T17:44:38.134Z,6.98
2023-02-13T17:49:39.796Z,6.84
2023-02-13T17:54:41.595Z,6.73
2023-02-13T17:59:44.005Z,6.65
2023-02-13T18:04:46.616Z,6.56
2023-02-13T18:09:48.210Z,6.47
2023-02-13T18:14:51.021Z,6.35
2023-02-13T18:19:52.651Z,6.22
2023-02-13T18:24:54.323Z,6.11
2023-02-13T18:29:56.451Z,6.01
2023-02-13T18:34:58.105Z,5.90
2023-02-13T18:39:59.824Z,5.78
2023-02-13T18:45:01.761Z,5.63
2023-02-13T18:50:04.307Z,5.45
2023-02-13T18:55:09.448Z,5.40
2023-02-13T19:00:12.746Z,5.30
2023-02-13T19:05:14.520Z,5.20
2023-02-13T19:10:16.193Z,5.07
2023-02-13T19:15:17.916Z,4.98
2023-02-13T19:20:19.947Z,4.90
2023-02-13T19:25:22.419Z,4.85
2023-02-13T19:30:24.166Z,4.73
2023-02-13T19:35:25.949Z,4.64
2023-02-13T19:40:28.032Z,4.56
2023-02-13T19:45:29.661Z,4.50
2023-02-13T19:50:31.231Z,4.45
2023-02-13T19:55:32.844Z,4.38
2023-02-13T20:00:34.555Z,4.23
2023-02-13T20:05:40.079Z,4.13
2023-02-13T20:10:45.821Z,4.09
2023-02-13T20:15:47.865Z,3.97
2023-02-13T20:20:49.577Z,3.84
2023-02-13T20:25:51.538Z,3.70
2023-02-13T20:30:53.660Z,3.62
2023-02-13T20:35:56.143Z,3.60
2023-02-13T20:40:58.696Z,3.60
2023-02-13T20:46:01.562Z,3.34
2023-02-13T20:51:05.995Z,3.28
2023-02-13T20:56:19.115Z,3.19
2023-02-13T21:01:30.378Z,3.05
2023-02-13T21:06:34.929Z,3.09
2023-02-13T21:11:38.467Z,3.05
2023-02-13T21:16:41.716Z,2.97
2023-02-13T21:21:44.313Z,2.91
2023-02-13T21:26:47.261Z,2.85
2023-02-13T21:31:49.018Z,2.73
2023-02-13T21:36:50.688Z,2.69
2023-02-13T21:41:52.287Z,2.68
2023-02-13T21:46:54.197Z,2.61
2023-02-13T21:51:55.877Z,2.61
2023-02-13T21:56:57.525Z,2.56
2023-02-13T22:02:00.199Z,2.54
2023-02-13T22:07:02.156Z,2.50
2023-02-13T22:12:04.408Z,2.34
2023-02-13T22:17:06.134Z,2.32
2023-02-13T22:22:08.978Z,2.31
2023-02-13T22:27:10.630Z,2.22
2023-02-13T22:32:12.344Z,2.17
2023-02-13T22:37:14.023Z,2.13
2023-02-13T22:42:16.081Z,2.09
2023-02-13T22:47:17.636Z,2.05
2023-02-13T22:52:19.253Z,2.02
2023-02-13T22:57:20.823Z,1.97
2023-02-13T23:02:22.447Z,1.95
2023-02-13T23:07:24.069Z,1.91
2023-02-13T23:12:39.163Z,1.85
2023-02-13T23:18:00.442Z,1.75
2023-02-13T23:23:04.655Z,1.66
2023-02-13T23:28:06.983Z,1.62
2023-02-13T23:33:08.608Z,1.59
2023-02-13T23:38:10.271Z,1.49
2023-02-13T23:43:12.197Z,1.48
2023-02-13T23:48:13.874Z,1.42
2023-02-13T23:53:15.490Z,1.33
2023-02-13T23:58:17.131Z,1.29
